Time;durP1;ratioP1;P1;durP2;ratioP2;P2;SDS_P1;SDS_P2;PMS_P1;PMS_P2;Temp;Humidity;BMP_temperature;BMP_pressure;BME280_temperature;BME280_humidity;BME280_pressure;Samples;Min_cycle;Max_cycle;Signal;HPM_P1;HPM_P2
2023/03/14 00:01:49;;;;;;;22.60;6.50;;;;;;;8.46;76.62;98571.70;106555;1274;25346;-60
2023/03/14 00:04:20;;;;;;;25.80;9.30;;;;;;;8.45;76.47;98567.29;106670;1257;22518;-60
2023/03/14 00:06:51;;;;;;;27.10;7.90;;;;;;;8.44;76.56;98562.23;106597;1267;24248;-61
2023/03/14 00:09:22;;;;;;;26.50;9.00;;;;;;;8.43;76.64;98553.02;106659;1259;23919;-61
2023/03/14 00:11:54;;;;;;;25.20;8.30;;;;;;;8.42;76.60;98542.87;106609;1274;22516;-62
2023/03/14 00:14:24;;;;;;;23.70;8.50;;;;;;;8.41;76.59;98543.93;106583;1259;23159;-61
2023/03/14 00:16:55;;;;;;;31.30;9.90;;;;;;;8.41;76.91;98543.31;106749;1274;22633;-62
2023/03/14 00:19:26;;;;;;;26.50;9.80;;;;;;;8.42;76.93;98553.69;106627;1260;24220;-60
2023/03/14 00:21:57;;;;;;;38.10;12.30;;;;;;;8.41;77.05;98555.91;106785;1260;22718;-61
2023/03/14 00:24:28;;;;;;;50.70;20.50;;;;;;;8.40;76.79;98556.30;106719;1267;25365;-62
2023/03/14 00:27:02;;;;;;;45.00;17.90;;;;;;;8.35;76.69;98552.73;106616;1270;22516;-62
2023/03/14 00:29:33;;;;;;;48.80;19.00;;;;;;;8.31;76.94;98553.23;106679;1274;27242;-62
2023/03/14 00:32:05;;;;;;;44.60;19.70;;;;;;;8.31;77.29;98545.14;106660;1274;22521;-62
2023/03/14 00:34:35;;;;;;;50.20;19.90;;;;;;;8.31;77.30;98541.80;106742;1274;22524;-61
2023/03/14 00:37:06;;;;;;;43.40;18.50;;;;;;;8.31;77.40;98538.01;106670;1269;22590;-60
2023/03/14 00:39:37;;;;;;;39.10;16.30;;;;;;;8.31;77.48;98535.08;106719;1271;25704;-62
2023/03/14 00:42:08;;;;;;;39.70;16.60;;;;;;;8.31;77.57;98528.46;106582;1260;22558;-60
2023/03/14 00:44:40;;;;;;;43.00;17.90;;;;;;;8.30;77.38;98530.17;106620;1267;25731;-61
2023/03/14 00:47:11;;;;;;;37.70;16.30;;;;;;;8.30;77.37;98534.88;106605;1259;22523;-60
2023/03/14 00:49:43;;;;;;;31.70;13.50;;;;;;;8.28;77.36;98534.05;106682;1274;24239;-61
2023/03/14 00:52:14;;;;;;;38.40;15.70;;;;;;;8.26;77.37;98538.36;106691;1272;22657;-60
2023/03/14 00:54:45;;;;;;;34.90;13.40;;;;;;;8.22;77.51;98542.88;106611;1274;24296;-60
2023/03/14 00:57:16;;;;;;;30.70;13.90;;;;;;;8.19;77.58;98537.52;106638;1274;25508;-62
2023/03/14 00:59:47;;;;;;;34.00;14.40;;;;;;;8.19;77.82;98531.10;106582;1270;22529;-59
2023/03/14 01:02:18;;;;;;;32.90;14.40;;;;;;;8.20;77.91;98528.88;106575;1251;24311;-60
2023/03/14 01:04:52;;;;;;;31.60;15.10;;;;;;;8.20;77.86;98533.23;102641;1274;5421527;-60
2023/03/14 01:07:22;;;;;;;31.40;13.10;;;;;;;8.12;77.92;98563.64;106643;1267;23024;-60
2023/03/14 01:09:55;;;;;;;24.80;9.10;;;;;;;8.00;77.99;98614.28;106569;1273;24260;-61
2023/03/14 01:12:28;;;;;;;22.40;9.20;;;;;;;7.87;78.27;98591.81;106633;1268;24229;-60
2023/03/14 01:14:59;;;;;;;22.50;8.60;;;;;;;7.86;78.58;98584.73;106674;1274;22545;-60
2023/03/14 01:17:30;;;;;;;22.40;7.00;;;;;;;7.88;78.77;98597.92;106719;1267;22536;-61
2023/03/14 01:20:04;;;;;;;26.50;8.00;;;;;;;7.88;79.14;98581.51;106582;1251;24223;-60
2023/03/14 01:22:35;;;;;;;26.00;10.20;;;;;;;7.90;79.61;98566.31;106618;1267;22571;-59
2023/03/14 01:25:10;;;;;;;31.60;12.30;;;;;;;7.91;79.88;98574.30;106660;1275;25312;-59
2023/03/14 01:27:41;;;;;;;31.50;12.60;;;;;;;7.94;79.91;98570.58;106725;1274;26526;-61
2023/03/14 01:30:14;;;;;;;39.20;15.80;;;;;;;7.96;80.18;98559.86;106703;1259;22511;-59
2023/03/14 01:32:45;;;;;;;39.90;17.60;;;;;;;7.97;80.39;98551.67;106755;1259;22525;-61
2023/03/14 01:35:16;;;;;;;50.60;21.10;;;;;;;7.99;80.71;98549.86;106722;1274;25194;-61
2023/03/14 01:37:47;;;;;;;53.50;22.10;;;;;;;8.00;80.62;98542.20;106656;1267;24370;-61
2023/03/14 01:40:18;;;;;;;45.40;19.70;;;;;;;8.02;80.77;98539.91;106686;1268;24249;-61
2023/03/14 01:42:57;;;;;;;47.60;18.30;;;;;;;8.03;80.76;98544.17;106545;1274;23183;-62
2023/03/14 01:46:13;;;;;;;45.90;18.30;;;;;;;8.04;80.96;98525.13;106576;1274;25287;-60
2023/03/14 01:48:48;;;;;;;44.00;15.80;;;;;;;8.05;80.93;98497.48;106618;1261;25625;-59
2023/03/14 01:51:25;;;;;;;41.10;15.70;;;;;;;8.05;80.99;98486.86;106867;1270;22468;-62
2023/03/14 01:54:03;;;;;;;39.40;15.00;;;;;;;8.05;81.09;98477.36;106684;1267;22519;-61
2023/03/14 01:56:34;;;;;;;33.80;13.40;;;;;;;8.05;81.22;98489.80;106670;1268;22520;-61
2023/03/14 01:59:08;;;;;;;35.70;13.00;;;;;;;8.05;81.36;98510.41;106575;1274;26651;-60
2023/03/14 02:01:42;;;;;;;25.70;9.10;;;;;;;8.04;81.51;98496.31;106610;1274;24248;-59
2023/03/14 02:04:13;;;;;;;27.00;10.00;;;;;;;8.04;81.64;98461.30;106573;1270;22472;-60
2023/03/14 02:06:51;;;;;;;26.50;8.90;;;;;;;8.05;81.84;98457.05;106576;1274;22555;-59
2023/03/14 02:09:23;;;;;;;31.60;10.80;;;;;;;8.04;82.00;98460.54;106754;1274;22643;-60
2023/03/14 02:11:54;;;;;;;26.00;9.30;;;;;;;8.03;82.11;98442.19;106751;1268;22541;-60
2023/03/14 02:14:33;;;;;;;30.40;9.20;;;;;;;8.03;82.35;98436.68;106682;1267;22521;-61
2023/03/14 02:17:07;;;;;;;26.00;9.50;;;;;;;8.02;82.22;98428.55;106713;1274;25373;-59
2023/03/14 02:20:08;;;;;;;25.30;8.90;;;;;;;8.03;82.40;98420.42;106688;1267;25353;-61
2023/03/14 02:22:43;;;;;;;23.40;9.10;;;;;;;8.02;82.30;98415.77;106633;1274;22521;-60
2023/03/14 02:25:18;;;;;;;28.60;11.30;;;;;;;8.01;82.16;98413.20;106907;1267;22545;-62
2023/03/14 02:27:49;;;;;;;25.00;8.90;;;;;;;8.00;82.24;98413.23;106648;1268;22530;-60
2023/03/14 02:30:23;;;;;;;19.60;6.20;;;;;;;7.99;82.26;98406.68;106617;1270;24242;-61
2023/03/14 02:32:58;;;;;;;14.70;4.70;;;;;;;7.97;82.23;98406.17;106604;1259;22521;-61
2023/03/14 02:35:33;;;;;;;18.50;3.80;;;;;;;7.96;82.06;98391.63;106715;1267;25352;-61
2023/03/14 02:38:12;;;;;;;14.50;3.70;;;;;;;7.97;82.08;98385.86;106735;1274;22459;-62
2023/03/14 02:40:44;;;;;;;12.20;3.00;;;;;;;7.98;82.05;98386.92;106577;1274;22805;-60
2023/03/14 02:43:14;;;;;;;14.70;2.90;;;;;;;8.00;81.84;98383.28;106604;1274;22530;-60
2023/03/14 02:45:47;;;;;;;7.90;2.10;;;;;;;8.04;81.99;98385.66;106588;1263;22523;-61
2023/03/14 02:48:22;;;;;;;13.80;2.70;;;;;;;8.06;81.82;98379.43;106931;1268;24236;-61
2023/03/14 02:50:55;;;;;;;12.10;2.10;;;;;;;8.09;81.66;98369.84;106818;1273;22542;-60
2023/03/14 02:53:29;;;;;;;9.60;2.70;;;;;;;8.12;81.57;98372.52;106698;1273;24367;-61
2023/03/14 02:56:00;;;;;;;11.70;2.00;;;;;;;8.15;81.43;98372.91;106777;1274;22518;-61
2023/03/14 02:58:32;;;;;;;10.10;2.70;;;;;;;8.18;81.43;98384.43;106580;1259;22517;-61
2023/03/14 03:01:03;;;;;;;12.30;2.40;;;;;;;8.21;81.48;98374.42;106730;1263;22739;-60
2023/03/14 03:03:34;;;;;;;8.60;1.90;;;;;;;8.24;81.09;98363.25;106640;1267;22514;-62
2023/03/14 03:06:06;;;;;;;13.00;2.20;;;;;;;8.29;80.72;98361.00;106661;1270;25246;-60
2023/03/14 03:08:36;;;;;;;11.80;1.60;;;;;;;8.39;80.29;98345.64;106917;1270;24256;-62
2023/03/14 03:11:08;;;;;;;9.20;1.60;;;;;;;8.51;79.99;98328.93;106560;1267;23110;-60
2023/03/14 03:13:39;;;;;;;7.10;1.40;;;;;;;8.62;79.71;98324.23;106669;1273;22524;-60
2023/03/14 03:16:13;;;;;;;10.10;1.80;;;;;;;8.72;79.63;98325.20;106687;1273;24219;-61
2023/03/14 03:18:44;;;;;;;9.50;1.40;;;;;;;8.79;79.30;98318.23;107055;1266;22565;-61
2023/03/14 03:21:15;;;;;;;12.10;2.00;;;;;;;8.88;78.88;98304.48;106756;1273;22578;-61
2023/03/14 03:23:46;;;;;;;5.80;1.30;;;;;;;8.96;78.81;98299.89;106817;1267;24241;-61
2023/03/14 03:26:17;;;;;;;5.40;1.20;;;;;;;9.03;78.57;98298.80;106534;1267;22560;-62
2023/03/14 03:28:51;;;;;;;7.30;1.50;;;;;;;9.10;78.27;98290.85;106563;1274;22551;-61
2023/03/14 03:31:21;;;;;;;11.00;2.00;;;;;;;9.18;78.02;98290.70;106736;1269;22545;-61
2023/03/14 03:33:53;;;;;;;13.30;2.10;;;;;;;9.26;77.93;98288.38;106993;1268;22516;-62
2023/03/14 03:36:26;;;;;;;10.90;1.30;;;;;;;9.32;77.40;98283.82;106905;1254;22527;-60
2023/03/14 03:38:57;;;;;;;5.20;1.40;;;;;;;9.39;77.11;98280.98;106795;1270;24265;-62
2023/03/14 03:41:28;;;;;;;6.50;1.20;;;;;;;9.44;77.16;98280.44;106549;1267;23234;-62
2023/03/14 03:43:59;;;;;;;8.60;1.40;;;;;;;9.46;76.80;98278.89;106570;1273;24440;-61
2023/03/14 03:46:30;;;;;;;10.30;2.20;;;;;;;9.49;77.01;98275.27;106521;1270;24285;-62
2023/03/14 03:49:03;;;;;;;7.50;1.40;;;;;;;9.50;76.62;98266.30;106474;1274;22546;-61
2023/03/14 03:51:34;;;;;;;10.70;1.50;;;;;;;9.52;76.45;98268.05;106569;1274;25976;-62
2023/03/14 03:54:05;;;;;;;6.10;1.40;;;;;;;9.53;76.48;98239.94;106503;1274;26530;-60
2023/03/14 03:56:36;;;;;;;7.40;1.30;;;;;;;9.53;76.21;98223.73;106724;1268;22531;-62
2023/03/14 03:59:08;;;;;;;6.20;1.30;;;;;;;9.55;76.13;98216.27;106696;1267;22537;-60
2023/03/14 04:01:39;;;;;;;11.30;1.50;;;;;;;9.55;76.03;98231.21;106603;1273;24251;-61
2023/03/14 04:04:09;;;;;;;9.00;1.30;;;;;;;9.57;75.60;98246.14;106717;1259;25352;-60
2023/03/14 04:06:41;;;;;;;6.80;1.20;;;;;;;9.59;75.59;98257.02;106587;1273;22513;-61
2023/03/14 04:09:13;;;;;;;5.80;1.60;;;;;;;9.61;75.57;98255.27;106684;1270;24219;-61
2023/03/14 04:11:44;;;;;;;10.00;1.70;;;;;;;9.63;75.49;98260.72;106607;1257;22695;-60
2023/03/14 04:14:14;;;;;;;7.80;1.40;;;;;;;9.65;75.54;98256.65;106673;1259;23306;-61
2023/03/14 04:16:45;;;;;;;6.50;1.40;;;;;;;9.63;75.50;98245.37;106689;1258;24269;-59
2023/03/14 04:19:16;;;;;;;9.00;1.30;;;;;;;9.63;75.37;98238.13;106602;1270;25415;-62
2023/03/14 04:21:47;;;;;;;6.90;1.40;;;;;;;9.65;76.17;98243.43;106519;1273;25010;-62
2023/03/14 04:24:18;;;;;;;9.90;1.60;;;;;;;9.62;77.28;98239.31;106583;1268;22749;-60
2023/03/14 04:26:49;;;;;;;5.80;1.40;;;;;;;9.56;77.58;98223.95;106577;1274;22895;-58
2023/03/14 04:29:21;;;;;;;8.40;1.70;;;;;;;9.51;77.76;98222.85;106560;1267;22517;-60
2023/03/14 04:31:52;;;;;;;8.70;1.70;;;;;;;9.45;77.69;98226.59;106649;1268;25345;-57
2023/03/14 04:34:23;;;;;;;8.90;1.60;;;;;;;9.39;77.67;98223.61;106577;1274;22575;-60
2023/03/14 04:36:53;;;;;;;10.20;1.60;;;;;;;9.36;77.73;98210.46;106548;1271;22605;-60
2023/03/14 04:39:24;;;;;;;6.50;1.50;;;;;;;9.35;77.79;98211.55;106597;1274;22738;-59
2023/03/14 04:41:55;;;;;;;10.90;2.20;;;;;;;9.35;77.52;98199.95;106639;1266;24269;-59
2023/03/14 04:44:27;;;;;;;7.30;1.50;;;;;;;9.36;77.55;98194.37;106674;1269;23265;-60
2023/03/14 04:46:57;;;;;;;7.70;1.40;;;;;;;9.37;77.50;98195.62;106836;1274;22488;-61
2023/03/14 04:49:28;;;;;;;5.80;1.50;;;;;;;9.40;77.31;98191.09;106646;1264;22518;-62
2023/03/14 04:51:59;;;;;;;9.10;1.80;;;;;;;9.42;77.23;98185.05;106734;1274;22520;-63
2023/03/14 04:54:30;;;;;;;8.10;1.40;;;;;;;9.44;77.03;98203.36;106694;1267;24278;-60
2023/03/14 04:57:01;;;;;;;11.10;1.40;;;;;;;9.47;76.79;98221.62;106799;1259;22673;-60
2023/03/14 04:59:32;;;;;;;9.00;1.50;;;;;;;9.51;76.69;98215.20;106762;1274;22626;-60
2023/03/14 05:02:03;;;;;;;6.30;1.30;;;;;;;9.52;76.70;98196.85;106768;1274;22514;-62
2023/03/14 05:04:34;;;;;;;9.10;1.80;;;;;;;9.55;76.77;98190.75;106573;1267;25454;-61
2023/03/14 05:07:05;;;;;;;8.50;1.70;;;;;;;9.57;76.68;98202.63;106718;1267;25383;-61
2023/03/14 05:09:36;;;;;;;7.90;1.70;;;;;;;9.59;76.49;98216.14;106648;1273;24355;-61
2023/03/14 05:12:08;;;;;;;9.10;1.00;;;;;;;9.60;76.44;98231.73;106729;1257;24206;-61
2023/03/14 05:14:39;;;;;;;7.10;1.20;;;;;;;9.61;76.19;98237.19;106874;1259;22763;-60
2023/03/14 05:17:10;;;;;;;8.90;2.00;;;;;;;9.61;76.20;98231.52;106843;1259;22549;-61
2023/03/14 05:19:41;;;;;;;8.00;1.50;;;;;;;9.62;76.36;98208.81;106827;1270;22459;-60
2023/03/14 05:22:12;;;;;;;9.60;1.80;;;;;;;9.62;76.38;98200.75;106735;1268;22526;-61
2023/03/14 05:24:43;;;;;;;9.20;1.70;;;;;;;9.61;76.68;98188.27;106727;1267;22517;-60
2023/03/14 05:27:14;;;;;;;12.20;1.50;;;;;;;9.59;77.16;98178.45;106664;1270;22611;-60
2023/03/14 05:29:45;;;;;;;7.10;1.50;;;;;;;9.57;77.28;98174.42;106687;1268;23714;-61
2023/03/14 05:32:15;;;;;;;8.70;1.90;;;;;;;9.55;77.74;98174.44;106618;1267;22532;-63
2023/03/14 05:34:46;;;;;;;11.40;2.20;;;;;;;9.51;77.77;98165.92;106699;1266;23919;-60
2023/03/14 05:37:17;;;;;;;8.80;2.00;;;;;;;9.47;77.85;98159.23;106824;1253;24676;-62
2023/03/14 05:39:48;;;;;;;6.80;1.40;;;;;;;9.43;77.88;98164.98;106794;1259;23315;-61
2023/03/14 05:42:19;;;;;;;7.40;1.70;;;;;;;9.39;77.90;98166.95;106714;1266;22532;-61
2023/03/14 05:44:50;;;;;;;9.50;1.60;;;;;;;9.38;78.14;98171.88;106969;1271;22511;-61
2023/03/14 05:47:21;;;;;;;7.70;1.50;;;;;;;9.36;78.39;98180.70;106660;1266;25589;-62
2023/03/14 05:49:52;;;;;;;9.10;1.60;;;;;;;9.34;78.34;98191.75;106596;1267;23286;-62
2023/03/14 05:52:23;;;;;;;8.30;1.70;;;;;;;9.33;78.44;98194.45;106698;1262;25364;-58
2023/03/14 05:54:54;;;;;;;15.00;1.60;;;;;;;9.31;78.64;98201.55;106518;1259;25244;-56
2023/03/14 05:57:25;;;;;;;6.70;1.90;;;;;;;9.31;78.78;98201.45;106543;1251;24265;-59
2023/03/14 05:59:57;;;;;;;15.20;2.40;;;;;;;9.29;78.89;98201.16;106498;1259;22629;-57
2023/03/14 06:02:29;;;;;;;10.50;2.60;;;;;;;9.28;79.13;98202.19;106655;1267;27280;-56
2023/03/14 06:05:01;;;;;;;9.60;2.30;;;;;;;9.27;78.92;98196.98;106773;1262;22569;-56
2023/03/14 06:07:32;;;;;;;11.40;3.30;;;;;;;9.27;79.17;98190.34;106680;1262;22520;-57
2023/03/14 06:10:03;;;;;;;11.20;2.50;;;;;;;9.28;79.13;98192.07;106488;1275;22529;-58
2023/03/14 06:12:34;;;;;;;11.90;2.80;;;;;;;9.30;79.10;98205.27;106656;1261;22619;-58
2023/03/14 06:15:06;;;;;;;12.80;2.10;;;;;;;9.30;78.88;98213.86;106673;1264;23966;-58
2023/03/14 06:17:47;;;;;;;;;;;;;;;;;;;;;
2023/03/14 06:20:19;;;;;;;8.50;1.80;;;;;;;9.31;78.55;98191.27;106588;1259;26675;-59
2023/03/14 06:22:50;;;;;;;8.30;1.80;;;;;;;9.32;78.49;98188.43;106951;1273;22544;-55
2023/03/14 06:25:21;;;;;;;10.40;1.60;;;;;;;9.32;78.36;98194.25;106495;1259;24218;-57
2023/03/14 06:27:51;;;;;;;7.20;1.70;;;;;;;9.35;78.40;98189.41;106472;1274;24489;-57
2023/03/14 06:30:22;;;;;;;12.40;1.80;;;;;;;9.38;78.33;98199.77;106561;1268;22517;-55
2023/03/14 06:32:53;;;;;;;10.40;1.80;;;;;;;9.41;78.26;98221.21;106684;1275;22523;-57
2023/03/14 06:35:25;;;;;;;8.70;1.90;;;;;;;9.45;78.49;98228.63;106531;1267;23023;-55
2023/03/14 06:37:55;;;;;;;8.30;1.50;;;;;;;9.50;78.35;98226.80;106535;1268;24260;-58
2023/03/14 06:40:26;;;;;;;7.50;1.60;;;;;;;9.54;78.20;98227.27;106704;1275;22610;-55
2023/03/14 06:42:57;;;;;;;8.70;2.00;;;;;;;9.58;77.96;98232.09;106530;1274;22524;-57
2023/03/14 06:45:28;;;;;;;7.30;2.00;;;;;;;9.62;77.97;98231.70;106566;1274;22521;-55
2023/03/14 06:48:00;;;;;;;6.30;1.50;;;;;;;9.65;78.11;98227.42;106829;1274;22646;-59
2023/03/14 06:50:32;;;;;;;9.50;1.70;;;;;;;9.68;78.12;98222.38;107302;1264;25256;-58
2023/03/14 06:53:03;;;;;;;11.70;1.90;;;;;;;9.71;78.02;98220.48;106691;1274;22537;-58
2023/03/14 06:55:34;;;;;;;8.90;2.40;;;;;;;9.72;78.15;98224.86;106652;1262;24273;-58
2023/03/14 06:58:07;;;;;;;10.60;2.00;;;;;;;9.75;77.72;98222.51;106782;1275;22517;-57
2023/03/14 07:00:38;;;;;;;7.70;1.70;;;;;;;9.78;77.87;98229.22;107826;1270;22507;-57
2023/03/14 07:03:09;;;;;;;11.80;2.40;;;;;;;9.80;77.78;98231.59;106840;1259;25367;-57
2023/03/14 07:05:41;;;;;;;11.10;1.80;;;;;;;9.84;77.79;98237.83;106687;1268;22569;-57
2023/03/14 07:08:12;;;;;;;9.00;1.80;;;;;;;9.86;77.76;98235.61;106531;1267;22889;-58
2023/03/14 07:10:43;;;;;;;9.60;2.00;;;;;;;9.89;77.70;98232.25;106600;1274;23036;-56
2023/03/14 07:13:14;;;;;;;9.70;1.90;;;;;;;9.91;77.60;98217.13;106624;1274;22516;-59
2023/03/14 07:15:45;;;;;;;8.00;1.80;;;;;;;9.92;77.59;98225.52;106635;1267;25441;-56
2023/03/14 07:18:16;;;;;;;11.50;2.50;;;;;;;9.93;77.48;98236.45;106642;1270;24323;-59
2023/03/14 07:20:49;;;;;;;12.70;2.90;;;;;;;9.96;77.60;98245.77;106538;1271;25244;-56
2023/03/14 07:23:20;;;;;;;12.90;2.30;;;;;;;9.98;77.49;98253.50;106728;1267;22531;-57
2023/03/14 07:25:53;;;;;;;7.70;2.10;;;;;;;9.98;77.21;98263.22;106566;1275;22573;-56
2023/03/14 07:28:24;;;;;;;9.10;2.10;;;;;;;9.99;77.14;98273.15;106651;1270;22545;-57
2023/03/14 07:30:56;;;;;;;10.20;2.20;;;;;;;9.99;77.05;98271.73;106610;1274;22537;-58
2023/03/14 07:33:27;;;;;;;8.70;1.80;;;;;;;9.98;76.70;98268.23;106777;1268;24365;-57
2023/03/14 07:35:58;;;;;;;8.10;1.70;;;;;;;9.98;76.38;98269.05;106684;1269;22517;-58
2023/03/14 07:38:29;;;;;;;9.60;1.80;;;;;;;9.98;76.35;98268.95;106574;1258;27006;-57
2023/03/14 07:41:04;;;;;;;9.30;1.80;;;;;;;9.98;76.27;98265.30;106610;1274;24385;-57
2023/03/14 07:43:36;;;;;;;13.00;2.00;;;;;;;9.98;76.22;98254.56;106531;1268;23552;-56
2023/03/14 07:46:08;;;;;;;9.50;1.60;;;;;;;9.97;76.18;98248.69;106885;1272;24244;-56
2023/03/14 07:48:40;;;;;;;8.80;2.10;;;;;;;9.96;76.09;98235.47;106573;1270;25242;-59
2023/03/14 07:51:11;;;;;;;10.50;2.20;;;;;;;9.94;76.06;98227.79;106616;1271;22513;-59
2023/03/14 07:53:42;;;;;;;8.40;1.70;;;;;;;9.92;76.12;98225.56;106559;1259;22619;-59
2023/03/14 07:56:14;;;;;;;10.20;1.90;;;;;;;9.91;76.10;98232.33;106653;1259;22506;-59
2023/03/14 07:58:45;;;;;;;12.80;2.10;;;;;;;9.88;75.87;98240.02;106849;1274;22671;-58
2023/03/14 08:01:16;;;;;;;12.10;2.30;;;;;;;9.86;75.80;98236.02;106628;1275;22535;-58
2023/03/14 08:03:47;;;;;;;10.80;1.90;;;;;;;9.84;75.98;98215.42;106545;1271;23024;-58
2023/03/14 08:06:18;;;;;;;9.60;2.30;;;;;;;9.83;76.02;98218.08;106705;1274;25360;-56
2023/03/14 08:08:49;;;;;;;10.20;2.00;;;;;;;9.82;76.00;98227.46;106559;1270;22523;-58
2023/03/14 08:11:20;;;;;;;8.90;1.70;;;;;;;9.80;75.93;98230.13;106590;1267;25505;-56
2023/03/14 08:13:52;;;;;;;11.80;2.50;;;;;;;9.77;75.84;98224.52;106808;1274;22526;-57
2023/03/14 08:16:23;;;;;;;14.70;2.30;;;;;;;9.76;76.00;98220.48;106727;1262;22727;-57
2023/03/14 08:18:54;;;;;;;14.00;2.50;;;;;;;9.73;75.99;98225.61;106615;1270;26567;-58
2023/03/14 08:21:25;;;;;;;11.80;2.50;;;;;;;9.71;76.28;98225.49;106662;1271;25370;-56
2023/03/14 08:23:56;;;;;;;17.30;2.90;;;;;;;9.68;76.26;98221.00;106798;1274;23981;-56
2023/03/14 08:26:27;;;;;;;9.10;2.10;;;;;;;9.65;76.60;98223.46;106700;1274;25345;-59
2023/03/14 08:28:59;;;;;;;13.10;2.50;;;;;;;9.63;76.68;98226.49;106972;1275;24355;-60
2023/03/14 08:31:29;;;;;;;11.10;2.60;;;;;;;9.62;76.85;98244.63;106768;1271;22606;-56
2023/03/14 08:34:03;;;;;;;13.70;2.90;;;;;;;9.60;77.27;98252.19;106519;1268;22524;-59
2023/03/14 08:36:34;;;;;;;10.90;2.80;;;;;;;9.57;77.66;98261.38;106649;1274;25300;-56
2023/03/14 08:39:07;;;;;;;13.50;2.50;;;;;;;9.54;78.12;98263.08;106767;1270;24360;-58
2023/03/14 08:41:40;;;;;;;13.00;2.70;;;;;;;9.49;78.53;98272.44;106679;1271;26559;-56
2023/03/14 08:44:12;;;;;;;12.10;3.40;;;;;;;9.45;79.01;98274.35;106754;1267;25370;-56
2023/03/14 08:46:43;;;;;;;18.20;3.20;;;;;;;9.36;79.38;98286.61;106936;1274;24259;-58
2023/03/14 08:49:14;;;;;;;10.60;2.60;;;;;;;9.30;79.59;98298.05;106685;1259;24266;-59
2023/03/14 08:51:46;;;;;;;9.50;2.30;;;;;;;9.25;80.03;98299.46;106555;1267;24389;-59
2023/03/14 08:54:18;;;;;;;15.10;3.00;;;;;;;9.20;80.31;98304.84;106723;1259;25242;-59
2023/03/14 08:56:49;;;;;;;12.10;2.60;;;;;;;9.15;80.55;98298.92;106908;1267;24239;-59
2023/03/14 08:59:20;;;;;;;13.50;3.40;;;;;;;9.12;80.65;98296.61;106856;1274;22516;-56
2023/03/14 09:01:51;;;;;;;14.60;3.40;;;;;;;9.10;80.88;98297.84;106866;1275;22518;-57
2023/03/14 09:04:22;;;;;;;12.50;3.00;;;;;;;9.10;81.15;98297.84;106620;1269;22514;-56
2023/03/14 09:06:54;;;;;;;12.00;3.20;;;;;;;9.10;81.38;98290.91;106562;1269;24394;-57
2023/03/14 09:09:26;;;;;;;17.60;3.90;;;;;;;9.11;81.59;98287.92;106593;1259;22569;-55
2023/03/14 09:11:57;;;;;;;11.70;2.80;;;;;;;9.13;81.89;98291.02;106690;1262;22527;-56
2023/03/14 09:14:28;;;;;;;12.40;2.80;;;;;;;9.15;81.87;98294.11;106702;1271;22543;-56
2023/03/14 09:16:59;;;;;;;11.30;2.60;;;;;;;9.17;81.85;98296.27;106628;1267;25441;-54
2023/03/14 09:19:30;;;;;;;12.20;2.60;;;;;;;9.17;81.55;98296.98;106627;1253;24340;-56
2023/03/14 09:22:01;;;;;;;11.90;2.40;;;;;;;9.19;81.76;98303.69;106645;1274;23559;-58
2023/03/14 09:24:32;;;;;;;13.50;3.00;;;;;;;9.21;81.62;98300.90;106646;1275;22527;-57
2023/03/14 09:27:03;;;;;;;14.40;3.30;;;;;;;9.23;81.78;98292.95;106720;1260;22505;-56
2023/03/14 09:29:34;;;;;;;14.90;4.00;;;;;;;9.25;81.73;98289.09;106619;1274;26686;-57
2023/03/14 09:32:06;;;;;;;16.70;4.30;;;;;;;9.28;81.74;98288.96;106630;1275;22520;-58
2023/03/14 09:34:38;;;;;;;13.90;4.10;;;;;;;9.29;81.63;98294.92;106849;1274;24209;-57
2023/03/14 09:37:09;;;;;;;16.20;4.40;;;;;;;9.32;81.49;98307.77;106705;1271;22536;-56
2023/03/14 09:39:40;;;;;;;16.50;3.70;;;;;;;9.33;81.57;98313.52;106605;1274;24335;-55
2023/03/14 09:42:16;;;;;;;14.10;4.70;;;;;;;9.36;81.59;98314.38;106602;1274;25373;-59
2023/03/14 09:44:54;;;;;;;15.90;3.70;;;;;;;9.39;81.65;98322.95;106701;1271;22511;-57
2023/03/14 09:47:27;;;;;;;8.90;2.20;;;;;;;9.41;81.59;98331.19;106616;1266;22549;-57
2023/03/14 09:50:01;;;;;;;9.80;2.40;;;;;;;9.44;81.47;98335.38;106751;1259;24228;-59
2023/03/14 09:52:36;;;;;;;13.20;2.70;;;;;;;9.47;81.65;98339.45;107278;1262;25294;-58
2023/03/14 09:55:14;;;;;;;12.80;3.20;;;;;;;9.50;81.26;98346.48;107034;1264;24055;-59
2023/03/14 09:57:47;;;;;;;11.40;2.60;;;;;;;9.53;81.02;98349.29;107176;1270;22664;-59
2023/03/14 10:00:22;;;;;;;11.50;2.50;;;;;;;9.55;81.16;98350.09;107031;1271;25355;-58
2023/03/14 10:02:57;;;;;;;11.90;3.20;;;;;;;9.57;81.34;98357.81;107070;1270;22637;-58
2023/03/14 10:05:29;;;;;;;12.50;2.30;;;;;;;9.58;81.29;98353.92;107023;1266;24186;-59
2023/03/14 10:08:00;;;;;;;14.10;3.20;;;;;;;9.59;81.27;98352.02;106992;1274;25349;-58
2023/03/14 10:10:32;;;;;;;10.70;3.30;;;;;;;9.61;81.76;98353.64;106926;1274;22522;-59
2023/03/14 10:13:15;;;;;;;16.40;4.00;;;;;;;9.62;81.92;98352.91;107034;1274;22555;-59
2023/03/14 10:15:54;;;;;;;12.70;3.40;;;;;;;9.62;82.21;98348.16;107049;1270;22580;-59
2023/03/14 10:18:26;;;;;;;12.10;3.30;;;;;;;9.62;82.62;98344.30;107099;1268;24217;-58
2023/03/14 10:21:07;;;;;;;12.40;2.80;;;;;;;9.62;82.68;98345.63;107019;1271;22529;-60
2023/03/14 10:23:40;;;;;;;13.50;3.10;;;;;;;9.63;82.99;98347.54;106970;1271;25396;-58
2023/03/14 10:26:16;;;;;;;12.20;2.40;;;;;;;9.66;83.15;98343.77;106990;1259;22540;-58
2023/03/14 10:28:50;;;;;;;11.30;2.70;;;;;;;9.71;83.48;98338.81;107027;1274;22522;-56
2023/03/14 10:31:27;;;;;;;14.40;3.60;;;;;;;9.77;83.69;98333.49;106719;1269;25337;-57
2023/03/14 10:34:03;;;;;;;13.30;4.10;;;;;;;9.84;83.64;98327.34;106981;1266;25306;-59
2023/03/14 10:36:35;;;;;;;12.90;3.50;;;;;;;9.92;83.54;98327.39;106801;1268;24202;-58
2023/03/14 10:39:27;;;;;;;15.40;3.40;;;;;;;9.99;83.56;98328.54;106634;1275;22523;-57
2023/03/14 10:42:06;;;;;;;16.10;3.20;;;;;;;10.09;83.82;98322.72;106680;1274;24200;-56
2023/03/14 10:44:38;;;;;;;13.30;3.00;;;;;;;10.17;83.69;98311.86;106565;1271;22567;-58
2023/03/14 10:47:20;;;;;;;16.60;3.50;;;;;;;10.26;83.43;98312.58;106554;1267;22531;-59
2023/03/14 10:49:51;;;;;;;15.20;3.40;;;;;;;10.35;83.70;98309.14;106730;1274;22523;-59
2023/03/14 10:52:25;;;;;;;12.90;3.40;;;;;;;10.42;83.94;98304.84;106639;1252;24242;-59
2023/03/14 10:55:01;;;;;;;12.80;2.70;;;;;;;10.51;83.98;98307.14;106614;1267;22525;-58
2023/03/14 10:57:32;;;;;;;11.20;2.80;;;;;;;10.58;83.95;98306.65;106610;1266;22542;-57
2023/03/14 11:00:08;;;;;;;12.00;3.40;;;;;;;10.65;83.85;98310.02;106527;1275;22580;-58
2023/03/14 11:02:52;;;;;;;11.70;3.70;;;;;;;10.72;83.80;98305.35;106706;1268;22772;-57
2023/03/14 11:05:31;;;;;;;14.30;3.30;;;;;;;10.78;83.86;98310.59;106788;1269;25322;-57
2023/03/14 11:08:10;;;;;;;16.20;3.60;;;;;;;10.86;83.83;98309.91;106652;1261;22524;-59
2023/03/14 11:10:45;;;;;;;12.50;3.20;;;;;;;10.94;83.54;98309.23;106604;1259;22523;-56
2023/03/14 11:13:23;;;;;;;13.80;3.20;;;;;;;11.02;83.44;98306.07;106684;1274;23484;-57
2023/03/14 11:16:05;;;;;;;10.50;2.70;;;;;;;11.12;83.29;98305.82;106706;1267;22560;-55
2023/03/14 11:19:17;;;;;;;9.00;2.10;;;;;;;11.22;83.12;98308.02;106602;1271;24276;-56
2023/03/14 11:21:55;;;;;;;8.20;2.70;;;;;;;11.31;83.12;98304.13;106580;1260;22528;-58
2023/03/14 11:24:42;;;;;;;8.80;2.30;;;;;;;11.37;83.22;98297.73;106698;1259;22790;-57
2023/03/14 11:27:22;;;;;;;12.10;2.50;;;;;;;11.47;83.33;98291.45;106643;1262;23262;-59
2023/03/14 11:30:04;;;;;;;14.30;3.00;;;;;;;11.55;83.14;98287.49;106768;1268;22516;-56
2023/03/14 11:32:47;;;;;;;10.90;2.70;;;;;;;11.64;83.07;98281.05;106784;1256;24311;-56
2023/03/14 11:35:25;;;;;;;14.50;2.70;;;;;;;11.74;83.27;98275.22;106776;1269;24315;-57
2023/03/14 11:38:04;;;;;;;11.80;3.10;;;;;;;11.84;82.65;98274.14;106822;1272;22541;-58
2023/03/14 11:40:37;;;;;;;11.50;3.10;;;;;;;11.92;82.92;98271.65;106884;1274;22520;-57
2023/03/14 11:43:14;;;;;;;11.40;2.50;;;;;;;11.99;82.83;98274.27;106940;1271;22523;-58
2023/03/14 11:45:48;;;;;;;15.10;2.90;;;;;;;12.04;82.53;98269.20;106858;1255;25425;-58
2023/03/14 11:48:33;;;;;;;11.50;2.60;;;;;;;12.07;82.49;98280.58;106843;1262;25552;-57
2023/03/14 11:51:08;;;;;;;11.80;2.80;;;;;;;12.11;82.43;98285.48;106926;1274;25562;-59
2023/03/14 11:53:49;;;;;;;12.20;2.70;;;;;;;12.17;82.29;98284.73;106841;1266;23399;-55